Flight Track Log - Related Links

Times and Time Zones

All times are in EDT time to prevent confusion due to time zone crossing. See the EJA831 flight status page for this flight to view local times or setup timezone preferences in your user account.

Time Position Orientation Groundspeed Altitude Reporting Facility
EDT Latitude Longitude Course Direction KTS MPH feet Rate Location/Type
Sat 01:20:21 PM 39.8667 -75.2667 237° Southwest 178 205 600  Level Philadelphia TRACON
Sat 01:20:51 PM 39.8500 -75.3000 237° Southwest 206 237 1,700 2,867 Climbing Philadelphia TRACON
Sat 01:21:51 PM 39.7833 -75.3500 210° Southwest 245 282 4,900 3,350 Climbing Philadelphia TRACON
Sat 01:22:51 PM 39.7333 -75.3167 153° Southeast 292 336 8,400 3,100 Climbing Philadelphia TRACON
Sat 01:23:51 PM 39.7333 -75.2167 90° East 324 373 11,100 1,800 Climbing Philadelphia TRACON
Sat 01:24:51 PM 39.7500 -75.0833 81° East 381 438 12,000 295 Climbing Philadelphia TRACON
Sat 01:26:54 PM 39.7794 -74.8200 82° East 381 438 12,000 -33 Level New York Center
Sat 01:27:55 PM 39.7961 -74.6967 80° East 381 438 11,900 600 Descending New York Center
Sat 01:28:54 PM 39.8067 -74.5619 84° East 376 433 13,200 1,462 Climbing New York Center
Sat 01:29:54 PM 39.8175 -74.4142 85° East 376 433 14,800 893 Climbing New York Center
Sat 01:30:55 PM 39.8483 -74.2939 72° East 376 433 15,000 98 Climbing New York Center
Sat 01:31:56 PM 39.8833 -74.1686 70° East 376 433 15,000  Level New York Center
Sat 01:32:56 PM 39.9231 -74.0217 71° East 381 438 15,000  Level New York Center
Sat 01:33:56 PM 39.9597 -73.8906 70° East 386 444 15,000  Level New York Center
Sat 01:34:54 PM 39.9922 -73.7675 71° East 386 444 15,000 -101 Level New York Center
Sat 01:35:55 PM 40.0289 -73.6308 71° East 391 450 14,800 -832 Descending New York Center
Sat 01:38:16 PM 40.1856 -73.3744 51° Northeast 375 432 12,200 -1,134 Descending Boston Center
Sat 01:39:16 PM 40.2489 -73.2719 51° Northeast 367 422 11,000 -600 Descending Boston Center
Sat 01:40:16 PM 40.3161 -73.1667 50° Northeast 367 422 11,000  Level Boston Center
Sat 01:41:16 PM 40.3794 -73.0667 50° Northeast 367 422 11,000 -150 Level Boston Center
Sat 01:42:16 PM 40.4422 -72.9664 51° Northeast 367 422 10,700 -993 Descending Boston Center
Sat 01:43:47 PM 40.5333 -72.8333 48° Northeast 309 356 8,500 -1,430 Descending New York TRACON
Sat 01:44:47 PM 40.5833 -72.7333 57° Northeast 305 351 7,100 -667 Descending New York TRACON
Sat 01:45:53 PM 40.6500 -72.7000 21° North 293 337 7,100  Level New York TRACON
Sat 01:46:47 PM 40.7333 -72.7000 360° North 287 330 7,100 -526 Level New York TRACON
Sat 01:47:47 PM 40.8000 -72.7000 360° North 272 313 6,100 -1,095 Descending New York TRACON
Sat 01:48:53 PM 40.8833 -72.7000 360° North 271 312 4,800 -1,000 Descending New York TRACON
Sat 01:49:53 PM 40.9667 -72.7000 360° North 270 311 4,000 -400 Descending New York TRACON
Sat 01:50:53 PM 41.0333 -72.7167 349° North 259 298 4,000  Level New York TRACON
Sat 01:51:53 PM 41.0833 -72.7667 323° Northwest 241 277 4,000  Level New York TRACON
Sat 01:52:53 PM 41.1500 -72.8167 331° Northwest 241 277 4,000 -500 Level New York TRACON
Sat 01:53:53 PM 41.2000 -72.8667 323° Northwest 239 275 3,000 -500 Descending New York TRACON
Sat 01:54:53 PM 41.2500 -72.9167 323° Northwest 252 290 3,000  Level New York TRACON
Sat 01:55:47 PM 41.3000 -72.9667 323° Northwest 252 290 3,000 -250 Level New York TRACON
Sat 01:56:53 PM 41.3500 -73.0167 323° Northwest 202 232 2,500 -238 Descending New York TRACON
Sat 01:57:53 PM 41.4000 -73.0667 323° Northwest 224 258 2,500 -50 Level New York TRACON
Sat 01:58:53 PM 41.4667 -73.1000 339° North 217 250 2,400 -104 Descending New York TRACON
Sat 01:59:48 PM 41.5000 -73.1000 360° North 177 204 2,300 -474 Descending New York TRACON
Sat 02:00:47 PM 41.5000 -73.1500 270° West 166 191 1,500 -814 Descending New York TRACON

Login

Don't have an account? Register now (free) for customized features, flight alerts, and more!